Portada
METAR-TAF:

METAR-TAF

Aeroports :

Phitsanulok, Tailàndia

latitud: 16-46-23N, longitud: 100-16-56E, altitud: 47 m

Observació

L'informe es va fer fa 8 hores i 16 minuts, a les 13:00 UTC
Vent 5 kt del Sud
Temperatura 31°C
Humitat 59%
Pressió 1007 hPa
Visibilitat 10 km o més
Escasses núvols a una alçada de 2500 ft

METAR: VTPP 261300Z 19005KT 9999 FEW025 31/22 Q1007 NOSIG

Hora: 04:16 (21:16 UTC)

Pronòstic

L'informe es va fer fa 4 hores i 16 minuts, a les 17:00 UTC
Pronòstic vàlid del 26 a les 18 UTC al 27 a les 18 UTC
Vent 5 kt del Sud
Visibilitat 10 km o més
Escasses núvols a una alçada de 2500 ft
Temporalment
l' 27 a les 09 UTC al 27 a les 13 UTC
Vent 15 kt del Oest amb ràfegues de 30 kt
Visibilitat: 4000 m
Escasses núvols a una alçada de 2000 ft, Cumulonimbus.
Cel ennuvolat a una alçada de 2500 ft
tempesta, pluja

TAF: VTPP 261700Z 2618/2718 18005KT 9999 FEW025 TEMPO 2709/2713 27015G30KT 4000 TSRA FEW020CB BKN025

Observacions i pronòstics meteorològics de més de 4000 aeroports (METAR i TAF).

Les estacions disponibles són els punts grocs i vermells al mapa.

Posi el ratolí al punt desitjat per veure el nom de l'estació.

Feu clic per veure les observacions i els pronòstics meteorològics.

Per canviar el mapa: feu clic els botons verds amb una creu de color negre per apropar; al botó verd amb un guió per allunyar la imatge; o en les fletxes verdes per a mapes adjacents.


METAR-TAF: